sensor_id;sensor_type;location;lat;lon;timestamp;P1;durP1;ratioP1;P2;durP2;ratioP2
23952;SDS011;12163;49.316;6.092;2022-08-19T00:01:23;8.88;;;5.45;;
23952;SDS011;12163;49.316;6.092;2022-08-19T00:03:56;9.93;;;5.57;;
23952;SDS011;12163;49.316;6.092;2022-08-19T00:06:25;6.15;;;5.32;;
23952;SDS011;12163;49.316;6.092;2022-08-19T00:08:52;11.07;;;6.15;;
23952;SDS011;12163;49.316;6.092;2022-08-19T00:11:20;6.75;;;5.85;;
23952;SDS011;12163;49.316;6.092;2022-08-19T00:13:51;9.25;;;6.28;;
23952;SDS011;12163;49.316;6.092;2022-08-19T00:16:18;7.93;;;5.43;;
23952;SDS011;12163;49.316;6.092;2022-08-19T00:18:52;8.23;;;6.40;;
23952;SDS011;12163;49.316;6.092;2022-08-19T00:21:19;8.32;;;6.13;;
23952;SDS011;12163;49.316;6.092;2022-08-19T00:23:46;9.80;;;6.88;;
23952;SDS011;12163;49.316;6.092;2022-08-19T00:26:13;8.45;;;5.95;;
23952;SDS011;12163;49.316;6.092;2022-08-19T00:28:40;10.48;;;6.28;;
23952;SDS011;12163;49.316;6.092;2022-08-19T00:31:08;7.40;;;5.53;;
23952;SDS011;12163;49.316;6.092;2022-08-19T00:33:35;7.10;;;5.78;;
23952;SDS011;12163;49.316;6.092;2022-08-19T00:36:04;9.00;;;5.68;;
23952;SDS011;12163;49.316;6.092;2022-08-19T00:38:35;6.53;;;5.25;;
23952;SDS011;12163;49.316;6.092;2022-08-19T00:41:06;9.73;;;5.53;;
23952;SDS011;12163;49.316;6.092;2022-08-19T00:43:33;7.97;;;5.45;;
23952;SDS011;12163;49.316;6.092;2022-08-19T00:46:00;8.82;;;5.50;;
23952;SDS011;12163;49.316;6.092;2022-08-19T00:48:31;7.22;;;5.82;;
23952;SDS011;12163;49.316;6.092;2022-08-19T00:50:58;6.28;;;5.55;;
23952;SDS011;12163;49.316;6.092;2022-08-19T00:53:27;9.02;;;5.80;;
23952;SDS011;12163;49.316;6.092;2022-08-19T00:55:56;12.05;;;5.50;;
23952;SDS011;12163;49.316;6.092;2022-08-19T00:58:29;6.35;;;5.07;;
23952;SDS011;12163;49.316;6.092;2022-08-19T01:00:59;7.95;;;5.32;;
23952;SDS011;12163;49.316;6.092;2022-08-19T01:03:27;7.50;;;4.90;;
23952;SDS011;12163;49.316;6.092;2022-08-19T01:06:13;6.75;;;5.25;;
23952;SDS011;12163;49.316;6.092;2022-08-19T01:08:45;5.80;;;4.95;;
23952;SDS011;12163;49.316;6.092;2022-08-19T01:11:15;7.15;;;5.25;;
23952;SDS011;12163;49.316;6.092;2022-08-19T01:13:41;6.20;;;4.78;;
23952;SDS011;12163;49.316;6.092;2022-08-19T01:16:15;7.63;;;5.30;;
23952;SDS011;12163;49.316;6.092;2022-08-19T01:18:44;8.40;;;5.43;;
23952;SDS011;12163;49.316;6.092;2022-08-19T01:21:22;6.82;;;5.10;;
23952;SDS011;12163;49.316;6.092;2022-08-19T01:24:01;6.97;;;6.03;;
23952;SDS011;12163;49.316;6.092;2022-08-19T01:26:27;6.57;;;5.47;;
23952;SDS011;12163;49.316;6.092;2022-08-19T01:28:58;9.02;;;5.60;;
23952;SDS011;12163;49.316;6.092;2022-08-19T01:31:27;6.75;;;5.55;;
23952;SDS011;12163;49.316;6.092;2022-08-19T01:33:58;6.88;;;5.07;;
23952;SDS011;12163;49.316;6.092;2022-08-19T01:36:36;9.95;;;5.63;;
23952;SDS011;12163;49.316;6.092;2022-08-19T01:39:09;7.20;;;5.15;;
23952;SDS011;12163;49.316;6.092;2022-08-19T01:41:38;7.80;;;5.93;;
23952;SDS011;12163;49.316;6.092;2022-08-19T01:44:06;6.70;;;5.63;;
23952;SDS011;12163;49.316;6.092;2022-08-19T01:46:44;7.25;;;5.88;;
23952;SDS011;12163;49.316;6.092;2022-08-19T01:49:13;7.75;;;6.63;;
23952;SDS011;12163;49.316;6.092;2022-08-19T01:51:40;8.25;;;6.18;;
23952;SDS011;12163;49.316;6.092;2022-08-19T01:54:08;7.90;;;6.10;;
23952;SDS011;12163;49.316;6.092;2022-08-19T01:56:36;13.63;;;7.18;;
23952;SDS011;12163;49.316;6.092;2022-08-19T01:59:04;9.60;;;6.47;;
23952;SDS011;12163;49.316;6.092;2022-08-19T02:01:36;9.25;;;7.18;;
23952;SDS011;12163;49.316;6.092;2022-08-19T02:04:03;11.38;;;7.05;;
23952;SDS011;12163;49.316;6.092;2022-08-19T02:06:29;9.02;;;7.13;;
23952;SDS011;12163;49.316;6.092;2022-08-19T02:08:56;10.15;;;7.53;;
23952;SDS011;12163;49.316;6.092;2022-08-19T02:11:25;7.67;;;6.73;;
23952;SDS011;12163;49.316;6.092;2022-08-19T02:13:57;10.65;;;7.28;;
23952;SDS011;12163;49.316;6.092;2022-08-19T02:16:25;10.63;;;7.47;;
23952;SDS011;12163;49.316;6.092;2022-08-19T02:18:51;12.15;;;7.80;;
23952;SDS011;12163;49.316;6.092;2022-08-19T02:21:19;9.40;;;7.20;;
23952;SDS011;12163;49.316;6.092;2022-08-19T02:23:47;10.50;;;7.60;;
23952;SDS011;12163;49.316;6.092;2022-08-19T02:26:14;11.63;;;8.00;;
23952;SDS011;12163;49.316;6.092;2022-08-19T02:28:42;13.82;;;7.35;;
23952;SDS011;12163;49.316;6.092;2022-08-19T02:31:13;9.35;;;7.35;;
23952;SDS011;12163;49.316;6.092;2022-08-19T02:33:42;9.18;;;6.95;;
23952;SDS011;12163;49.316;6.092;2022-08-19T02:36:09;11.00;;;7.22;;
23952;SDS011;12163;49.316;6.092;2022-08-19T02:38:40;10.40;;;7.45;;
23952;SDS011;12163;49.316;6.092;2022-08-19T02:41:33;9.40;;;6.95;;
23952;SDS011;12163;49.316;6.092;2022-08-19T02:44:00;9.07;;;6.82;;
23952;SDS011;12163;49.316;6.092;2022-08-19T02:46:48;12.38;;;8.13;;
23952;SDS011;12163;49.316;6.092;2022-08-19T02:49:18;11.18;;;8.32;;
23952;SDS011;12163;49.316;6.092;2022-08-19T02:51:45;13.48;;;8.20;;
23952;SDS011;12163;49.316;6.092;2022-08-19T02:54:12;11.70;;;8.05;;
23952;SDS011;12163;49.316;6.092;2022-08-19T02:56:40;9.43;;;6.88;;
23952;SDS011;12163;49.316;6.092;2022-08-19T02:59:07;11.55;;;7.18;;
23952;SDS011;12163;49.316;6.092;2022-08-19T03:01:36;10.45;;;6.97;;
23952;SDS011;12163;49.316;6.092;2022-08-19T03:04:06;13.23;;;7.47;;
23952;SDS011;12163;49.316;6.092;2022-08-19T03:06:36;7.75;;;6.47;;
23952;SDS011;12163;49.316;6.092;2022-08-19T03:09:04;9.77;;;6.93;;
23952;SDS011;12163;49.316;6.092;2022-08-19T03:11:31;11.93;;;7.10;;
23952;SDS011;12163;49.316;6.092;2022-08-19T03:13:59;9.98;;;6.68;;
23952;SDS011;12163;49.316;6.092;2022-08-19T03:16:28;9.30;;;6.80;;
23952;SDS011;12163;49.316;6.092;2022-08-19T03:18:58;12.65;;;7.10;;
23952;SDS011;12163;49.316;6.092;2022-08-19T03:21:27;13.70;;;7.15;;
23952;SDS011;12163;49.316;6.092;2022-08-19T03:23:57;10.73;;;6.97;;
23952;SDS011;12163;49.316;6.092;2022-08-19T03:26:33;9.50;;;6.75;;
23952;SDS011;12163;49.316;6.092;2022-08-19T03:29:04;11.90;;;6.35;;
23952;SDS011;12163;49.316;6.092;2022-08-19T03:31:31;15.98;;;7.75;;
23952;SDS011;12163;49.316;6.092;2022-08-19T03:34:18;8.27;;;6.65;;
23952;SDS011;12163;49.316;6.092;2022-08-19T03:36:47;9.43;;;6.95;;
23952;SDS011;12163;49.316;6.092;2022-08-19T03:39:14;20.90;;;7.53;;
23952;SDS011;12163;49.316;6.092;2022-08-19T03:41:42;12.10;;;8.90;;
23952;SDS011;12163;49.316;6.092;2022-08-19T03:46:43;13.68;;;9.73;;
23952;SDS011;12163;49.316;6.092;2022-08-19T03:49:12;12.25;;;9.45;;
23952;SDS011;12163;49.316;6.092;2022-08-19T03:51:40;15.30;;;9.07;;
23952;SDS011;12163;49.316;6.092;2022-08-19T03:54:09;12.02;;;9.27;;
23952;SDS011;12163;49.316;6.092;2022-08-19T03:56:39;14.60;;;9.18;;
23952;SDS011;12163;49.316;6.092;2022-08-19T03:59:09;22.77;;;10.32;;
23952;SDS011;12163;49.316;6.092;2022-08-19T04:01:37;12.65;;;8.20;;
23952;SDS011;12163;49.316;6.092;2022-08-19T04:04:04;13.35;;;8.35;;
23952;SDS011;12163;49.316;6.092;2022-08-19T04:06:33;13.07;;;8.98;;
23952;SDS011;12163;49.316;6.092;2022-08-19T04:09:05;11.93;;;8.55;;
23952;SDS011;12163;49.316;6.092;2022-08-19T04:11:37;12.52;;;8.55;;
23952;SDS011;12163;49.316;6.092;2022-08-19T04:14:17;15.10;;;8.65;;
23952;SDS011;12163;49.316;6.092;2022-08-19T04:16:46;12.27;;;9.02;;
23952;SDS011;12163;49.316;6.092;2022-08-19T04:19:14;16.50;;;9.10;;
23952;SDS011;12163;49.316;6.092;2022-08-19T04:21:43;12.88;;;9.07;;
23952;SDS011;12163;49.316;6.092;2022-08-19T04:24:12;12.88;;;9.20;;
23952;SDS011;12163;49.316;6.092;2022-08-19T04:26:39;14.43;;;9.20;;
23952;SDS011;12163;49.316;6.092;2022-08-19T04:29:16;14.25;;;9.27;;
23952;SDS011;12163;49.316;6.092;2022-08-19T04:31:48;11.75;;;9.15;;
23952;SDS011;12163;49.316;6.092;2022-08-19T04:34:16;11.52;;;9.13;;
23952;SDS011;12163;49.316;6.092;2022-08-19T04:36:48;15.27;;;9.55;;
23952;SDS011;12163;49.316;6.092;2022-08-19T04:39:20;12.20;;;8.75;;
23952;SDS011;12163;49.316;6.092;2022-08-19T04:41:48;15.40;;;9.13;;
23952;SDS011;12163;49.316;6.092;2022-08-19T04:44:34;11.32;;;8.88;;
23952;SDS011;12163;49.316;6.092;2022-08-19T04:47:11;10.38;;;8.10;;
23952;SDS011;12163;49.316;6.092;2022-08-19T04:49:38;14.55;;;8.95;;
23952;SDS011;12163;49.316;6.092;2022-08-19T04:52:04;13.63;;;9.85;;
23952;SDS011;12163;49.316;6.092;2022-08-19T04:54:31;12.48;;;9.35;;
23952;SDS011;12163;49.316;6.092;2022-08-19T04:57:04;15.25;;;8.30;;
23952;SDS011;12163;49.316;6.092;2022-08-19T04:59:33;11.50;;;7.25;;
23952;SDS011;12163;49.316;6.092;2022-08-19T05:02:00;11.98;;;7.07;;
23952;SDS011;12163;49.316;6.092;2022-08-19T05:04:27;12.20;;;7.35;;
23952;SDS011;12163;49.316;6.092;2022-08-19T05:06:58;10.20;;;7.32;;
23952;SDS011;12163;49.316;6.092;2022-08-19T05:09:27;12.63;;;7.60;;
23952;SDS011;12163;49.316;6.092;2022-08-19T05:12:15;12.48;;;7.63;;
23952;SDS011;12163;49.316;6.092;2022-08-19T05:14:42;12.40;;;7.57;;
23952;SDS011;12163;49.316;6.092;2022-08-19T05:17:09;14.52;;;8.00;;
23952;SDS011;12163;49.316;6.092;2022-08-19T05:19:53;11.85;;;8.50;;
23952;SDS011;12163;49.316;6.092;2022-08-19T05:22:39;14.75;;;7.90;;
23952;SDS011;12163;49.316;6.092;2022-08-19T05:25:08;16.45;;;7.68;;
23952;SDS011;12163;49.316;6.092;2022-08-19T05:27:39;12.55;;;7.95;;
23952;SDS011;12163;49.316;6.092;2022-08-19T05:30:06;20.40;;;8.82;;
23952;SDS011;12163;49.316;6.092;2022-08-19T05:32:33;15.55;;;7.82;;
23952;SDS011;12163;49.316;6.092;2022-08-19T05:35:00;16.92;;;8.27;;
23952;SDS011;12163;49.316;6.092;2022-08-19T05:37:27;19.55;;;8.55;;
23952;SDS011;12163;49.316;6.092;2022-08-19T05:39:54;13.38;;;7.88;;
23952;SDS011;12163;49.316;6.092;2022-08-19T05:42:21;17.00;;;8.80;;
23952;SDS011;12163;49.316;6.092;2022-08-19T05:44:49;12.30;;;7.00;;
23952;SDS011;12163;49.316;6.092;2022-08-19T05:47:17;9.13;;;7.28;;
23952;SDS011;12163;49.316;6.092;2022-08-19T05:49:46;17.70;;;9.15;;
23952;SDS011;12163;49.316;6.092;2022-08-19T05:52:13;15.45;;;9.90;;
23952;SDS011;12163;49.316;6.092;2022-08-19T05:54:51;13.48;;;9.18;;
23952;SDS011;12163;49.316;6.092;2022-08-19T05:57:20;13.13;;;9.32;;
23952;SDS011;12163;49.316;6.092;2022-08-19T05:59:48;12.75;;;9.20;;
23952;SDS011;12163;49.316;6.092;2022-08-19T06:02:23;19.35;;;13.00;;
23952;SDS011;12163;49.316;6.092;2022-08-19T06:04:53;14.32;;;10.60;;
23952;SDS011;12163;49.316;6.092;2022-08-19T06:07:20;15.57;;;11.63;;
23952;SDS011;12163;49.316;6.092;2022-08-19T06:09:46;15.32;;;10.75;;
23952;SDS011;12163;49.316;6.092;2022-08-19T06:12:29;21.88;;;12.05;;
23952;SDS011;12163;49.316;6.092;2022-08-19T06:14:59;16.85;;;10.18;;
23952;SDS011;12163;49.316;6.092;2022-08-19T06:17:28;15.32;;;11.45;;
23952;SDS011;12163;49.316;6.092;2022-08-19T06:19:57;12.63;;;9.38;;
23952;SDS011;12163;49.316;6.092;2022-08-19T06:22:24;16.55;;;11.43;;
23952;SDS011;12163;49.316;6.092;2022-08-19T06:24:52;13.98;;;10.23;;
23952;SDS011;12163;49.316;6.092;2022-08-19T06:27:20;14.13;;;10.88;;
23952;SDS011;12163;49.316;6.092;2022-08-19T06:29:47;17.65;;;10.77;;
23952;SDS011;12163;49.316;6.092;2022-08-19T06:32:15;13.57;;;9.02;;
23952;SDS011;12163;49.316;6.092;2022-08-19T06:34:44;15.15;;;11.23;;
23952;SDS011;12163;49.316;6.092;2022-08-19T06:37:11;16.65;;;11.68;;
23952;SDS011;12163;49.316;6.092;2022-08-19T06:39:39;15.80;;;11.50;;
23952;SDS011;12163;49.316;6.092;2022-08-19T06:42:07;15.88;;;11.55;;
23952;SDS011;12163;49.316;6.092;2022-08-19T06:44:38;18.75;;;11.52;;
23952;SDS011;12163;49.316;6.092;2022-08-19T06:47:09;16.42;;;12.45;;
23952;SDS011;12163;49.316;6.092;2022-08-19T06:49:40;17.67;;;12.07;;
23952;SDS011;12163;49.316;6.092;2022-08-19T06:52:07;16.27;;;12.38;;
23952;SDS011;12163;49.316;6.092;2022-08-19T06:54:39;16.30;;;11.35;;
23952;SDS011;12163;49.316;6.092;2022-08-19T06:57:22;16.38;;;12.45;;
23952;SDS011;12163;49.316;6.092;2022-08-19T06:59:50;18.35;;;12.43;;
23952;SDS011;12163;49.316;6.092;2022-08-19T07:02:17;17.48;;;13.18;;
23952;SDS011;12163;49.316;6.092;2022-08-19T07:04:45;17.60;;;12.82;;
23952;SDS011;12163;49.316;6.092;2022-08-19T07:07:13;21.63;;;13.40;;
23952;SDS011;12163;49.316;6.092;2022-08-19T07:09:46;18.83;;;14.40;;
23952;SDS011;12163;49.316;6.092;2022-08-19T07:12:25;18.00;;;12.68;;
23952;SDS011;12163;49.316;6.092;2022-08-19T07:14:55;18.35;;;12.60;;
23952;SDS011;12163;49.316;6.092;2022-08-19T07:17:22;14.57;;;12.32;;
23952;SDS011;12163;49.316;6.092;2022-08-19T07:19:50;20.13;;;12.57;;
23952;SDS011;12163;49.316;6.092;2022-08-19T07:22:20;17.02;;;11.93;;
23952;SDS011;12163;49.316;6.092;2022-08-19T07:24:50;22.52;;;13.02;;
23952;SDS011;12163;49.316;6.092;2022-08-19T07:27:17;15.38;;;10.95;;
23952;SDS011;12163;49.316;6.092;2022-08-19T07:29:51;17.48;;;11.43;;
23952;SDS011;12163;49.316;6.092;2022-08-19T07:32:22;10.60;;;8.57;;
23952;SDS011;12163;49.316;6.092;2022-08-19T07:34:49;16.63;;;11.10;;
23952;SDS011;12163;49.316;6.092;2022-08-19T07:37:15;21.50;;;10.98;;
23952;SDS011;12163;49.316;6.092;2022-08-19T07:39:42;12.63;;;10.07;;
23952;SDS011;12163;49.316;6.092;2022-08-19T07:42:09;16.05;;;12.68;;
23952;SDS011;12163;49.316;6.092;2022-08-19T07:44:38;14.32;;;10.02;;
23952;SDS011;12163;49.316;6.092;2022-08-19T07:47:11;15.85;;;11.00;;
23952;SDS011;12163;49.316;6.092;2022-08-19T07:49:59;14.82;;;10.35;;
23952;SDS011;12163;49.316;6.092;2022-08-19T07:52:25;12.55;;;9.30;;
23952;SDS011;12163;49.316;6.092;2022-08-19T07:54:52;19.50;;;12.40;;
23952;SDS011;12163;49.316;6.092;2022-08-19T07:57:19;17.75;;;11.90;;
23952;SDS011;12163;49.316;6.092;2022-08-19T07:59:45;18.42;;;11.07;;
23952;SDS011;12163;49.316;6.092;2022-08-19T08:02:12;14.65;;;13.15;;
23952;SDS011;12163;49.316;6.092;2022-08-19T08:04:39;16.90;;;13.43;;
23952;SDS011;12163;49.316;6.092;2022-08-19T08:07:24;15.88;;;12.35;;
23952;SDS011;12163;49.316;6.092;2022-08-19T08:10:11;17.35;;;13.75;;
23952;SDS011;12163;49.316;6.092;2022-08-19T08:12:46;16.08;;;13.10;;
23952;SDS011;12163;49.316;6.092;2022-08-19T08:15:33;14.10;;;11.77;;
23952;SDS011;12163;49.316;6.092;2022-08-19T08:18:07;14.82;;;12.20;;
23952;SDS011;12163;49.316;6.092;2022-08-19T08:20:34;16.85;;;13.30;;
23952;SDS011;12163;49.316;6.092;2022-08-19T08:23:01;15.65;;;11.80;;
23952;SDS011;12163;49.316;6.092;2022-08-19T08:25:46;16.52;;;11.77;;
23952;SDS011;12163;49.316;6.092;2022-08-19T08:28:17;13.38;;;11.65;;
23952;SDS011;12163;49.316;6.092;2022-08-19T08:30:46;14.48;;;10.82;;
23952;SDS011;12163;49.316;6.092;2022-08-19T08:33:19;13.77;;;11.43;;
23952;SDS011;12163;49.316;6.092;2022-08-19T08:36:09;15.05;;;12.43;;
23952;SDS011;12163;49.316;6.092;2022-08-19T08:38:37;17.63;;;13.80;;
23952;SDS011;12163;49.316;6.092;2022-08-19T08:44:23;15.27;;;12.70;;
23952;SDS011;12163;49.316;6.092;2022-08-19T08:47:14;16.33;;;11.68;;
23952;SDS011;12163;49.316;6.092;2022-08-19T08:49:51;16.08;;;12.23;;
23952;SDS011;12163;49.316;6.092;2022-08-19T08:52:28;13.95;;;10.70;;
23952;SDS011;12163;49.316;6.092;2022-08-19T08:55:12;13.40;;;10.05;;
23952;SDS011;12163;49.316;6.092;2022-08-19T09:00:17;15.98;;;10.63;;
23952;SDS011;12163;49.316;6.092;2022-08-19T09:02:47;11.40;;;9.98;;
23952;SDS011;12163;49.316;6.092;2022-08-19T09:05:16;14.25;;;9.52;;
23952;SDS011;12163;49.316;6.092;2022-08-19T09:10:37;13.50;;;11.07;;
23952;SDS011;12163;49.316;6.092;2022-08-19T09:13:28;13.70;;;10.35;;
23952;SDS011;12163;49.316;6.092;2022-08-19T09:16:07;12.75;;;10.30;;
23952;SDS011;12163;49.316;6.092;2022-08-19T09:18:46;13.73;;;10.05;;
23952;SDS011;12163;49.316;6.092;2022-08-19T09:21:15;12.95;;;10.63;;
23952;SDS011;12163;49.316;6.092;2022-08-19T09:23:42;10.40;;;9.32;;
23952;SDS011;12163;49.316;6.092;2022-08-19T09:26:10;15.25;;;9.93;;
23952;SDS011;12163;49.316;6.092;2022-08-19T09:28:42;12.90;;;9.82;;
23952;SDS011;12163;49.316;6.092;2022-08-19T09:31:14;11.15;;;9.30;;
23952;SDS011;12163;49.316;6.092;2022-08-19T09:33:43;11.00;;;9.77;;
23952;SDS011;12163;49.316;6.092;2022-08-19T09:36:15;13.05;;;9.30;;
23952;SDS011;12163;49.316;6.092;2022-08-19T09:39:00;13.15;;;9.57;;
23952;SDS011;12163;49.316;6.092;2022-08-19T09:41:27;14.15;;;9.35;;
23952;SDS011;12163;49.316;6.092;2022-08-19T09:43:55;18.42;;;11.15;;
23952;SDS011;12163;49.316;6.092;2022-08-19T09:46:25;15.68;;;9.98;;
23952;SDS011;12163;49.316;6.092;2022-08-19T09:48:54;15.30;;;9.63;;
23952;SDS011;12163;49.316;6.092;2022-08-19T09:51:32;11.65;;;9.80;;
23952;SDS011;12163;49.316;6.092;2022-08-19T09:54:03;13.90;;;10.80;;
23952;SDS011;12163;49.316;6.092;2022-08-19T09:56:31;14.95;;;10.82;;
23952;SDS011;12163;49.316;6.092;2022-08-19T09:58:59;11.55;;;10.25;;
23952;SDS011;12163;49.316;6.092;2022-08-19T10:01:29;13.70;;;11.23;;
23952;SDS011;12163;49.316;6.092;2022-08-19T10:03:57;15.20;;;12.30;;
23952;SDS011;12163;49.316;6.092;2022-08-19T10:06:27;14.65;;;11.00;;
23952;SDS011;12163;49.316;6.092;2022-08-19T10:09:11;16.80;;;11.02;;
23952;SDS011;12163;49.316;6.092;2022-08-19T10:11:39;14.48;;;11.65;;
23952;SDS011;12163;49.316;6.092;2022-08-19T10:14:18;13.70;;;12.00;;
23952;SDS011;12163;49.316;6.092;2022-08-19T10:16:48;19.90;;;13.53;;
23952;SDS011;12163;49.316;6.092;2022-08-19T10:19:15;16.48;;;12.45;;
23952;SDS011;12163;49.316;6.092;2022-08-19T10:21:51;17.25;;;13.63;;
23952;SDS011;12163;49.316;6.092;2022-08-19T10:24:18;23.00;;;13.90;;
23952;SDS011;12163;49.316;6.092;2022-08-19T10:26:46;17.30;;;13.75;;
23952;SDS011;12163;49.316;6.092;2022-08-19T10:29:22;21.52;;;15.88;;
23952;SDS011;12163;49.316;6.092;2022-08-19T10:31:59;17.38;;;13.60;;
23952;SDS011;12163;49.316;6.092;2022-08-19T10:34:28;16.60;;;13.45;;
23952;SDS011;12163;49.316;6.092;2022-08-19T10:36:56;21.85;;;15.75;;
23952;SDS011;12163;49.316;6.092;2022-08-19T10:39:27;17.63;;;14.13;;
23952;SDS011;12163;49.316;6.092;2022-08-19T10:42:07;15.53;;;12.93;;
23952;SDS011;12163;49.316;6.092;2022-08-19T10:44:36;20.35;;;13.38;;
23952;SDS011;12163;49.316;6.092;2022-08-19T10:47:03;20.88;;;14.35;;
23952;SDS011;12163;49.316;6.092;2022-08-19T10:49:43;16.30;;;12.93;;
23952;SDS011;12163;49.316;6.092;2022-08-19T10:52:28;18.42;;;13.77;;
23952;SDS011;12163;49.316;6.092;2022-08-19T10:55:05;14.35;;;12.18;;
23952;SDS011;12163;49.316;6.092;2022-08-19T10:57:55;15.63;;;12.23;;
23952;SDS011;12163;49.316;6.092;2022-08-19T11:00:28;16.05;;;13.35;;
23952;SDS011;12163;49.316;6.092;2022-08-19T11:02:56;17.38;;;12.98;;
23952;SDS011;12163;49.316;6.092;2022-08-19T11:05:23;21.20;;;13.98;;
23952;SDS011;12163;49.316;6.092;2022-08-19T11:07:50;16.10;;;12.00;;
23952;SDS011;12163;49.316;6.092;2022-08-19T11:10:18;16.58;;;12.85;;
23952;SDS011;12163;49.316;6.092;2022-08-19T11:12:47;17.63;;;14.27;;
23952;SDS011;12163;49.316;6.092;2022-08-19T11:15:14;18.33;;;13.98;;
23952;SDS011;12163;49.316;6.092;2022-08-19T11:17:41;16.92;;;12.70;;
23952;SDS011;12163;49.316;6.092;2022-08-19T11:20:13;11.70;;;10.10;;
23952;SDS011;12163;49.316;6.092;2022-08-19T11:22:41;18.45;;;10.13;;
23952;SDS011;12163;49.316;6.092;2022-08-19T11:25:09;14.65;;;12.35;;
23952;SDS011;12163;49.316;6.092;2022-08-19T11:27:40;13.18;;;10.25;;
23952;SDS011;12163;49.316;6.092;2022-08-19T11:30:10;10.63;;;8.15;;
23952;SDS011;12163;49.316;6.092;2022-08-19T11:32:39;10.77;;;7.82;;
23952;SDS011;12163;49.316;6.092;2022-08-19T11:35:12;7.38;;;5.82;;
23952;SDS011;12163;49.316;6.092;2022-08-19T11:37:39;8.55;;;5.63;;
23952;SDS011;12163;49.316;6.092;2022-08-19T11:40:06;6.97;;;5.53;;
23952;SDS011;12163;49.316;6.092;2022-08-19T11:42:34;7.18;;;5.03;;
23952;SDS011;12163;49.316;6.092;2022-08-19T11:45:19;7.15;;;5.45;;
23952;SDS011;12163;49.316;6.092;2022-08-19T11:47:45;7.05;;;5.85;;
23952;SDS011;12163;49.316;6.092;2022-08-19T11:50:14;10.68;;;6.25;;
23952;SDS011;12163;49.316;6.092;2022-08-19T11:52:41;5.82;;;5.10;;
23952;SDS011;12163;49.316;6.092;2022-08-19T11:55:10;6.28;;;4.82;;
23952;SDS011;12163;49.316;6.092;2022-08-19T11:57:39;14.05;;;6.00;;
23952;SDS011;12163;49.316;6.092;2022-08-19T12:00:07;6.15;;;4.80;;
23952;SDS011;12163;49.316;6.092;2022-08-19T12:02:36;7.03;;;4.53;;
23952;SDS011;12163;49.316;6.092;2022-08-19T12:05:02;5.95;;;4.18;;
23952;SDS011;12163;49.316;6.092;2022-08-19T12:07:34;5.93;;;4.15;;
23952;SDS011;12163;49.316;6.092;2022-08-19T12:10:01;6.47;;;4.40;;
23952;SDS011;12163;49.316;6.092;2022-08-19T12:12:28;5.75;;;3.70;;
23952;SDS011;12163;49.316;6.092;2022-08-19T12:14:55;5.00;;;3.03;;
23952;SDS011;12163;49.316;6.092;2022-08-19T12:17:25;6.13;;;3.92;;
23952;SDS011;12163;49.316;6.092;2022-08-19T12:19:52;4.35;;;3.60;;
23952;SDS011;12163;49.316;6.092;2022-08-19T12:22:20;5.65;;;3.15;;
23952;SDS011;12163;49.316;6.092;2022-08-19T12:24:47;4.50;;;3.25;;
23952;SDS011;12163;49.316;6.092;2022-08-19T12:27:16;6.40;;;3.58;;
23952;SDS011;12163;49.316;6.092;2022-08-19T12:30:04;9.15;;;3.42;;
23952;SDS011;12163;49.316;6.092;2022-08-19T12:32:32;4.07;;;3.20;;
23952;SDS011;12163;49.316;6.092;2022-08-19T12:34:59;3.58;;;2.85;;
23952;SDS011;12163;49.316;6.092;2022-08-19T12:37:25;4.63;;;2.50;;
23952;SDS011;12163;49.316;6.092;2022-08-19T12:39:52;5.18;;;2.67;;
23952;SDS011;12163;49.316;6.092;2022-08-19T12:42:19;3.92;;;3.22;;
23952;SDS011;12163;49.316;6.092;2022-08-19T12:44:48;3.53;;;2.55;;
23952;SDS011;12163;49.316;6.092;2022-08-19T12:47:14;2.95;;;2.60;;
23952;SDS011;12163;49.316;6.092;2022-08-19T12:49:41;2.88;;;2.25;;
23952;SDS011;12163;49.316;6.092;2022-08-19T12:52:20;3.55;;;2.83;;
23952;SDS011;12163;49.316;6.092;2022-08-19T12:54:51;3.28;;;2.70;;
23952;SDS011;12163;49.316;6.092;2022-08-19T12:57:21;3.40;;;2.80;;
23952;SDS011;12163;49.316;6.092;2022-08-19T12:59:58;3.50;;;2.90;;
23952;SDS011;12163;49.316;6.092;2022-08-19T13:02:26;3.95;;;2.72;;
23952;SDS011;12163;49.316;6.092;2022-08-19T13:04:53;4.60;;;3.15;;
23952;SDS011;12163;49.316;6.092;2022-08-19T13:07:19;5.82;;;2.70;;
23952;SDS011;12163;49.316;6.092;2022-08-19T13:09:46;3.95;;;2.80;;
23952;SDS011;12163;49.316;6.092;2022-08-19T13:12:13;3.30;;;2.60;;
23952;SDS011;12163;49.316;6.092;2022-08-19T13:14:40;3.50;;;2.72;;
23952;SDS011;12163;49.316;6.092;2022-08-19T13:17:10;3.83;;;2.80;;
23952;SDS011;12163;49.316;6.092;2022-08-19T13:19:37;3.75;;;2.70;;
23952;SDS011;12163;49.316;6.092;2022-08-19T13:22:06;4.50;;;2.70;;
23952;SDS011;12163;49.316;6.092;2022-08-19T13:24:40;3.20;;;2.50;;
23952;SDS011;12163;49.316;6.092;2022-08-19T13:27:12;2.55;;;2.15;;
23952;SDS011;12163;49.316;6.092;2022-08-19T13:29:39;3.03;;;1.85;;
23952;SDS011;12163;49.316;6.092;2022-08-19T13:32:25;2.97;;;2.13;;
23952;SDS011;12163;49.316;6.092;2022-08-19T13:35:11;4.20;;;2.00;;
23952;SDS011;12163;49.316;6.092;2022-08-19T13:37:42;2.88;;;1.80;;
23952;SDS011;12163;49.316;6.092;2022-08-19T13:40:19;2.60;;;1.90;;
23952;SDS011;12163;49.316;6.092;2022-08-19T13:42:50;6.95;;;2.00;;
23952;SDS011;12163;49.316;6.092;2022-08-19T13:45:20;1.92;;;1.48;;
23952;SDS011;12163;49.316;6.092;2022-08-19T13:47:49;4.00;;;1.30;;
23952;SDS011;12163;49.316;6.092;2022-08-19T13:50:25;1.95;;;1.05;;
23952;SDS011;12163;49.316;6.092;2022-08-19T13:52:54;1.77;;;1.05;;
23952;SDS011;12163;49.316;6.092;2022-08-19T13:55:22;2.50;;;0.90;;
23952;SDS011;12163;49.316;6.092;2022-08-19T13:57:54;1.00;;;0.88;;
23952;SDS011;12163;49.316;6.092;2022-08-19T14:00:22;1.50;;;0.73;;
23952;SDS011;12163;49.316;6.092;2022-08-19T14:02:53;3.15;;;1.10;;
23952;SDS011;12163;49.316;6.092;2022-08-19T14:05:22;1.35;;;0.80;;
23952;SDS011;12163;49.316;6.092;2022-08-19T14:07:50;3.00;;;0.70;;
23952;SDS011;12163;49.316;6.092;2022-08-19T14:10:17;1.15;;;0.75;;
23952;SDS011;12163;49.316;6.092;2022-08-19T14:12:45;2.33;;;0.90;;
23952;SDS011;12163;49.316;6.092;2022-08-19T14:15:12;3.20;;;0.80;;
23952;SDS011;12163;49.316;6.092;2022-08-19T14:17:41;1.02;;;0.63;;
23952;SDS011;12163;49.316;6.092;2022-08-19T14:20:10;1.10;;;0.80;;
23952;SDS011;12163;49.316;6.092;2022-08-19T14:22:44;1.30;;;0.80;;
23952;SDS011;12163;49.316;6.092;2022-08-19T14:25:14;0.85;;;0.60;;
23952;SDS011;12163;49.316;6.092;2022-08-19T14:30:12;2.88;;;0.70;;
23952;SDS011;12163;49.316;6.092;2022-08-19T14:32:40;0.95;;;0.70;;
23952;SDS011;12163;49.316;6.092;2022-08-19T14:35:09;8.80;;;0.77;;
23952;SDS011;12163;49.316;6.092;2022-08-19T14:37:38;1.10;;;0.73;;
23952;SDS011;12163;49.316;6.092;2022-08-19T14:40:12;2.90;;;0.98;;
23952;SDS011;12163;49.316;6.092;2022-08-19T14:42:40;0.77;;;0.70;;
23952;SDS011;12163;49.316;6.092;2022-08-19T14:45:08;4.40;;;0.80;;
23952;SDS011;12163;49.316;6.092;2022-08-19T14:47:36;5.30;;;1.15;;
23952;SDS011;12163;49.316;6.092;2022-08-19T14:50:15;2.42;;;0.80;;
23952;SDS011;12163;49.316;6.092;2022-08-19T14:52:44;2.30;;;0.60;;
23952;SDS011;12163;49.316;6.092;2022-08-19T14:55:14;1.52;;;0.70;;
23952;SDS011;12163;49.316;6.092;2022-08-19T14:57:42;0.80;;;0.63;;
23952;SDS011;12163;49.316;6.092;2022-08-19T15:00:10;2.45;;;0.77;;
23952;SDS011;12163;49.316;6.092;2022-08-19T15:02:42;0.93;;;0.63;;
23952;SDS011;12163;49.316;6.092;2022-08-19T15:05:12;2.45;;;0.70;;
23952;SDS011;12163;49.316;6.092;2022-08-19T15:07:39;3.72;;;0.77;;
23952;SDS011;12163;49.316;6.092;2022-08-19T15:10:07;3.10;;;1.00;;